createdAt,value
2019-03-28T00:02:21.700Z,101481.80
2019-03-28T00:04:53.051Z,101487.87
2019-03-28T00:07:24.686Z,101495.09
2019-03-28T00:09:56.076Z,101487.98
2019-03-28T00:12:27.363Z,101483.83
2019-03-28T00:14:58.878Z,101483.05
2019-03-28T00:17:30.254Z,101481.02
2019-03-28T00:20:01.881Z,101478.16
2019-03-28T00:22:43.959Z,101472.32
2019-03-28T00:25:15.851Z,101465.11
2019-03-28T00:27:47.151Z,101469.08
2019-03-28T00:30:20.203Z,101465.65
2019-03-28T00:32:52.321Z,101465.17
2019-03-28T00:35:23.643Z,101463.08
2019-03-28T00:37:54.942Z,101457.40
2019-03-28T00:40:26.851Z,101453.98
2019-03-28T00:42:58.411Z,101459.85
2019-03-28T00:45:30.064Z,101459.20
2019-03-28T00:48:01.591Z,101461.14
2019-03-28T00:50:33.251Z,101462.78
2019-03-28T00:53:04.557Z,101452.58
2019-03-28T00:55:36.128Z,101456.79
2019-03-28T00:58:07.492Z,101459.95
2019-03-28T01:00:38.872Z,101451.81
2019-03-28T01:03:11.178Z,101458.86
2019-03-28T01:05:42.779Z,101455.86
2019-03-28T01:08:14.374Z,101449.08
2019-03-28T01:10:45.742Z,101452.95
2019-03-28T01:13:17.117Z,101453.34
2019-03-28T01:15:49.258Z,101456.24
2019-03-28T01:18:21.035Z,101455.98
2019-03-28T01:20:52.802Z,101458.58
2019-03-28T01:23:24.228Z,101455.75
2019-03-28T01:25:55.762Z,101465.17
2019-03-28T01:28:27.562Z,101460.17
2019-03-28T01:30:59.193Z,101458.08
2019-03-28T01:33:30.981Z,101453.87
2019-03-28T01:36:02.436Z,101451.86
2019-03-28T01:38:34.066Z,101452.50
2019-03-28T01:41:05.834Z,101451.11
2019-03-28T01:43:37.456Z,101452.25
2019-03-28T01:46:09.737Z,101450.22
2019-03-28T01:48:41.587Z,101448.09
2019-03-28T01:51:13.459Z,101449.26
2019-03-28T01:53:45.029Z,101439.66
2019-03-28T01:56:16.420Z,101436.86
2019-03-28T01:58:48.059Z,101430.56
2019-03-28T02:01:19.370Z,101434.28
2019-03-28T02:03:51.018Z,101434.00
2019-03-28T02:06:22.334Z,101440.56
2019-03-28T02:08:53.970Z,101435.74
2019-03-28T02:11:25.368Z,101439.33
2019-03-28T02:13:57.673Z,101442.75
2019-03-28T02:16:28.988Z,101438.75
2019-03-28T02:19:00.887Z,101440.64
2019-03-28T02:21:32.709Z,101442.05
2019-03-28T02:24:04.169Z,101439.34
2019-03-28T02:26:35.726Z,101437.27
2019-03-28T02:29:07.495Z,101436.83
2019-03-28T02:31:39.251Z,101430.92
2019-03-28T02:34:10.589Z,101435.39
2019-03-28T02:36:41.989Z,101437.41
2019-03-28T02:39:13.309Z,101429.64
2019-03-28T02:41:44.703Z,101425.67
2019-03-28T02:44:16.293Z,101430.98
2019-03-28T02:46:47.916Z,101439.92
2019-03-28T02:49:19.881Z,101433.20
2019-03-28T02:51:51.426Z,101424.63
2019-03-28T02:54:22.717Z,101427.17
2019-03-28T02:56:54.129Z,101426.05
2019-03-28T02:59:25.707Z,101429.05
2019-03-28T03:01:57.657Z,101421.89
2019-03-28T03:04:29.071Z,101414.09
2019-03-28T03:07:00.708Z,101419.42
2019-03-28T03:09:32.309Z,101422.18
2019-03-28T03:12:03.976Z,101426.89
2019-03-28T03:14:37.523Z,101423.22
2019-03-28T03:17:09.415Z,101419.80
2019-03-28T03:19:40.821Z,101419.27
2019-03-28T03:22:12.432Z,101430.45
2019-03-28T03:24:44.056Z,101435.27
2019-03-28T03:27:15.888Z,101433.46
2019-03-28T03:29:47.500Z,101435.69
2019-03-28T03:32:18.821Z,101428.13
2019-03-28T03:34:50.678Z,101427.56
2019-03-28T03:37:22.993Z,101436.77
2019-03-28T03:39:54.489Z,101437.69
2019-03-28T03:42:26.375Z,101433.17
2019-03-28T03:45:01.150Z,101445.12
2019-03-28T03:47:33.209Z,101436.13
2019-03-28T03:50:05.326Z,101440.70
2019-03-28T03:52:36.723Z,101442.39
2019-03-28T03:55:08.437Z,101446.33
2019-03-28T03:57:40.627Z,101440.53
2019-03-28T04:00:13.689Z,101441.16
2019-03-28T04:02:45.481Z,101444.67
2019-03-28T04:05:16.847Z,101450.96
2019-03-28T04:07:48.139Z,101446.38
2019-03-28T04:10:19.483Z,101452.30
2019-03-28T04:12:51.101Z,101455.62
2019-03-28T04:15:22.531Z,101458.77
2019-03-28T04:17:53.931Z,101463.36
2019-03-28T04:20:25.377Z,101477.16
2019-03-28T04:22:57.931Z,101473.42
2019-03-28T04:25:29.853Z,101479.86
2019-03-28T04:28:01.632Z,101470.60
2019-03-28T04:30:33.206Z,101470.42
2019-03-28T04:33:04.828Z,101481.02
2019-03-28T04:35:36.465Z,101481.99
2019-03-28T04:38:08.102Z,101478.37
2019-03-28T04:40:39.959Z,101484.50
2019-03-28T04:43:12.544Z,101487.20
2019-03-28T04:45:44.519Z,101486.80
2019-03-28T04:48:15.842Z,101489.95
2019-03-28T04:50:48.376Z,101487.45
2019-03-28T04:53:20.660Z,101485.94
2019-03-28T04:55:52.320Z,101483.84
2019-03-28T04:58:23.894Z,101481.27
2019-03-28T05:00:55.307Z,101482.73
2019-03-28T05:03:26.694Z,101478.53
2019-03-28T05:05:58.484Z,101477.50
2019-03-28T05:08:30.210Z,101482.62
2019-03-28T05:11:01.548Z,101483.33
2019-03-28T05:13:34.111Z,101487.02
2019-03-28T05:16:05.524Z,101481.95
2019-03-28T05:18:37.063Z,101485.86
2019-03-28T05:21:08.557Z,101490.94
2019-03-28T05:23:40.578Z,101489.91
2019-03-28T05:26:12.348Z,101488.63
2019-03-28T05:29:03.355Z,101485.69
2019-03-28T05:31:53.116Z,101490.06
2019-03-28T05:34:42.933Z,101491.34
2019-03-28T05:37:32.999Z,101489.59
2019-03-28T05:40:04.806Z,101491.73
2019-03-28T05:42:36.216Z,101485.30
2019-03-28T05:45:08.079Z,101472.09
2019-03-28T05:47:39.690Z,101500.97
2019-03-28T05:50:11.100Z,101499.64
2019-03-28T05:52:42.460Z,101506.06
2019-03-28T05:55:13.793Z,101504.25
2019-03-28T05:57:45.710Z,101506.22
2019-03-28T06:00:17.534Z,101516.77
2019-03-28T06:02:48.933Z,101515.05
2019-03-28T06:05:20.251Z,101522.06
2019-03-28T06:07:51.570Z,101517.83
2019-03-28T06:10:22.976Z,101527.62
2019-03-28T06:12:54.295Z,101527.50
2019-03-28T06:15:28.819Z,101534.25
2019-03-28T06:18:00.134Z,101535.84
2019-03-28T06:20:31.469Z,101529.79
2019-03-28T06:23:03.174Z,101538.80
2019-03-28T06:25:34.581Z,101539.52
2019-03-28T06:28:06.300Z,101545.83
2019-03-28T06:30:37.716Z,101544.66
2019-03-28T06:33:09.105Z,101548.77
2019-03-28T06:35:40.912Z,101545.21
2019-03-28T06:38:12.326Z,101553.23
2019-03-28T06:40:43.972Z,101550.60
2019-03-28T06:43:15.710Z,101551.02
2019-03-28T06:45:47.404Z,101554.37
2019-03-28T06:48:19.019Z,101548.51
2019-03-28T06:50:50.345Z,101542.30
2019-03-28T06:53:21.967Z,101542.75
2019-03-28T06:55:53.295Z,101540.67
2019-03-28T06:58:24.864Z,101535.53
2019-03-28T07:00:56.312Z,101540.81
2019-03-28T07:03:27.701Z,101540.53
2019-03-28T07:05:59.594Z,101538.48
2019-03-28T07:08:30.929Z,101536.43
2019-03-28T07:11:02.625Z,101540.21
2019-03-28T07:13:35.068Z,101548.29
2019-03-28T07:16:06.472Z,101541.17
2019-03-28T07:18:37.975Z,101545.55
2019-03-28T07:21:09.415Z,101541.20
2019-03-28T07:23:40.741Z,101535.35
2019-03-28T07:26:12.228Z,101533.60
2019-03-28T07:28:45.244Z,101533.21
2019-03-28T07:31:16.647Z,101540.56
2019-03-28T07:33:47.961Z,101542.05
2019-03-28T07:36:20.253Z,101536.20
2019-03-28T07:38:51.567Z,101539.20
2019-03-28T07:41:24.141Z,101532.02
2019-03-28T07:43:55.824Z,101533.30
2019-03-28T07:46:27.240Z,101528.23
2019-03-28T07:48:58.546Z,101526.12
2019-03-28T07:51:30.170Z,101524.22
2019-03-28T07:54:01.472Z,101517.75
2019-03-28T07:56:33.030Z,101521.34
2019-03-28T07:59:04.443Z,101518.08
2019-03-28T08:01:36.180Z,101520.72
2019-03-28T08:04:07.574Z,101527.64
2019-03-28T08:06:49.128Z,101526.41
2019-03-28T08:09:12.227Z,101532.36
2019-03-28T08:11:44.060Z,101527.79
2019-03-28T08:14:15.675Z,101531.91
2019-03-28T08:16:47.287Z,101532.85
2019-03-28T08:19:18.832Z,101532.27
2019-03-28T08:21:50.324Z,101526.19
2019-03-28T08:24:21.887Z,101535.79
2019-03-28T08:26:53.524Z,101536.81
2019-03-28T08:29:25.108Z,101534.77
2019-03-28T08:31:57.201Z,101537.56
2019-03-28T08:34:31.315Z,101532.42
2019-03-28T08:37:02.420Z,101535.86
2019-03-28T08:39:34.245Z,101536.56
2019-03-28T08:42:06.111Z,101533.02
2019-03-28T08:44:38.535Z,101531.86
2019-03-28T08:47:10.544Z,101535.52
2019-03-28T08:49:42.219Z,101528.64
2019-03-28T08:52:13.889Z,101516.56
2019-03-28T08:54:45.445Z,101524.94
2019-03-28T08:57:17.129Z,101531.59
2019-03-28T08:59:48.776Z,101535.17
2019-03-28T09:02:20.101Z,101539.77
2019-03-28T09:04:51.441Z,101536.65
2019-03-28T09:07:22.838Z,101527.59
2019-03-28T09:09:54.251Z,101532.81
2019-03-28T09:12:26.139Z,101530.31
2019-03-28T09:14:57.480Z,101529.66
2019-03-28T09:17:28.784Z,101533.53
2019-03-28T09:20:00.887Z,101531.91
2019-03-28T09:22:32.456Z,101530.33
2019-03-28T09:25:04.109Z,101526.97
2019-03-28T09:27:35.980Z,101525.48
2019-03-28T09:30:08.260Z,101525.06
2019-03-28T09:32:39.993Z,101526.88
2019-03-28T09:35:13.442Z,101528.93
2019-03-28T09:37:45.737Z,101525.25
2019-03-28T09:40:17.429Z,101525.85
2019-03-28T09:42:49.125Z,101516.50
2019-03-28T09:45:20.553Z,101520.92
2019-03-28T09:47:51.899Z,101528.34
2019-03-28T09:50:23.247Z,101529.21
2019-03-28T09:52:55.433Z,101528.61
2019-03-28T09:55:26.790Z,101521.77
2019-03-28T09:57:58.156Z,101518.23
2019-03-28T10:00:32.629Z,101512.09
2019-03-28T10:03:03.012Z,101515.70
2019-03-28T10:05:37.748Z,101511.58
2019-03-28T10:08:07.730Z,101507.24
2019-03-28T10:10:39.356Z,101499.69
2019-03-28T10:13:11.013Z,101503.80
2019-03-28T10:15:43.807Z,101497.85
2019-03-28T10:18:15.985Z,101502.71
2019-03-28T10:20:47.310Z,101498.98
2019-03-28T10:23:19.620Z,101493.23
2019-03-28T10:25:51.467Z,101490.80
2019-03-28T10:28:23.115Z,101494.08
2019-03-28T10:30:54.512Z,101494.39
2019-03-28T10:33:28.232Z,101490.64
2019-03-28T10:35:59.879Z,101490.92
2019-03-28T10:38:31.298Z,101484.27
2019-03-28T10:41:02.776Z,101487.97
2019-03-28T10:43:34.157Z,101485.59
2019-03-28T10:46:05.828Z,101488.71
2019-03-28T10:48:37.475Z,101491.62
2019-03-28T10:51:08.882Z,101491.22
2019-03-28T10:53:40.447Z,101488.11
2019-03-28T10:56:21.587Z,101488.11
2019-03-28T10:58:45.425Z,101487.05
2019-03-28T11:01:31.293Z,101486.04
2019-03-28T11:03:49.902Z,101486.37
2019-03-28T11:06:21.287Z,101487.21
2019-03-28T11:08:52.628Z,101483.75
2019-03-28T11:11:24.072Z,101483.97
2019-03-28T11:13:55.420Z,101482.19
2019-03-28T11:16:27.139Z,101474.80
2019-03-28T11:18:59.518Z,101471.70
2019-03-28T11:21:34.183Z,101471.14
2019-03-28T11:24:04.679Z,101476.71
2019-03-28T11:26:36.295Z,101470.81
2019-03-28T11:29:08.113Z,101466.27
2019-03-28T11:31:46.697Z,101462.59
2019-03-28T11:34:14.684Z,101456.23
2019-03-28T11:36:46.230Z,101456.94
2019-03-28T11:39:17.835Z,101456.14
2019-03-28T11:41:49.470Z,101456.09
2019-03-28T11:44:21.184Z,101455.93
2019-03-28T11:46:52.508Z,101448.62
2019-03-28T11:49:23.843Z,101448.05
2019-03-28T11:51:55.481Z,101450.90
2019-03-28T11:54:27.056Z,101447.55
2019-03-28T11:56:58.677Z,101442.34
2019-03-28T11:59:30.319Z,101443.50
2019-03-28T12:02:18.631Z,101439.34
2019-03-28T12:04:34.653Z,101439.56
2019-03-28T12:07:06.038Z,101436.39
2019-03-28T12:09:38.234Z,101427.54
2019-03-28T12:12:09.828Z,101433.36
2019-03-28T12:14:41.455Z,101423.94
2019-03-28T12:17:12.781Z,101418.87
2019-03-28T12:19:44.155Z,101420.84
2019-03-28T12:22:15.556Z,101414.45
2019-03-28T12:24:46.909Z,101418.67
2019-03-28T12:27:18.299Z,101409.02
2019-03-28T12:29:49.891Z,101414.08
2019-03-28T12:32:21.896Z,101413.73
2019-03-28T12:34:53.225Z,101404.64
2019-03-28T12:37:24.868Z,101405.27
2019-03-28T12:39:59.848Z,101398.12
2019-03-28T12:42:29.733Z,101411.81
2019-03-28T12:45:02.034Z,101407.92
2019-03-28T12:47:42.372Z,101398.83
2019-03-28T12:50:06.990Z,101399.80
2019-03-28T12:52:38.616Z,101399.20
2019-03-28T12:55:10.397Z,101396.92
2019-03-28T12:57:42.211Z,101400.75
2019-03-28T13:00:13.967Z,101403.16
2019-03-28T13:02:45.579Z,101393.05
2019-03-28T13:05:17.308Z,101400.22
2019-03-28T13:07:48.641Z,101396.80
2019-03-28T13:10:20.117Z,101394.08
2019-03-28T13:12:51.727Z,101390.81
2019-03-28T13:15:23.516Z,101400.51
2019-03-28T13:17:54.930Z,101393.69
2019-03-28T13:20:26.432Z,101393.23
2019-03-28T13:22:58.034Z,101385.53
2019-03-28T13:25:29.620Z,101390.90
2019-03-28T13:28:00.943Z,101387.56
2019-03-28T13:30:32.362Z,101388.38
2019-03-28T13:33:04.125Z,101394.26
2019-03-28T13:35:35.691Z,101391.00
2019-03-28T13:38:06.996Z,101386.64
2019-03-28T13:40:38.551Z,101388.70
2019-03-28T13:43:09.930Z,101379.18
2019-03-28T13:45:41.638Z,101386.73
2019-03-28T13:48:13.890Z,101371.22
2019-03-28T13:50:45.371Z,101378.37
2019-03-28T13:53:17.719Z,101371.09
2019-03-28T13:55:52.008Z,101372.87
2019-03-28T13:58:23.265Z,101373.69
2019-03-28T14:00:56.325Z,101375.47
2019-03-28T14:03:29.037Z,101369.92
2019-03-28T14:06:01.248Z,101379.86
2019-03-28T14:08:32.654Z,101373.75
2019-03-28T14:11:03.997Z,101366.81
2019-03-28T14:13:35.326Z,101373.99
2019-03-28T14:16:06.750Z,101369.77
2019-03-28T14:18:38.097Z,101376.42
2019-03-28T14:21:09.494Z,101370.66
2019-03-28T14:23:41.084Z,101367.98
2019-03-28T14:26:12.495Z,101371.54
2019-03-28T14:28:44.210Z,101365.45
2019-03-28T14:31:15.771Z,101369.06
2019-03-28T14:33:47.627Z,101367.66
2019-03-28T14:36:19.167Z,101363.95
2019-03-28T14:38:50.741Z,101363.70
2019-03-28T14:41:22.627Z,101370.00
2019-03-28T14:43:55.308Z,101364.11
2019-03-28T14:46:27.915Z,101366.20
2019-03-28T14:48:59.587Z,101360.12
2019-03-28T14:51:30.956Z,101360.27
2019-03-28T14:54:02.541Z,101362.90
2019-03-28T14:56:34.295Z,101357.80
2019-03-28T14:59:05.805Z,101363.06
2019-03-28T15:01:37.187Z,101365.58
2019-03-28T15:04:08.594Z,101364.88
2019-03-28T15:06:39.983Z,101367.31
2019-03-28T15:09:11.630Z,101364.98
2019-03-28T15:11:43.501Z,101368.86
2019-03-28T15:14:14.893Z,101367.99
2019-03-28T15:16:46.421Z,101360.58
2019-03-28T15:19:17.758Z,101359.59
2019-03-28T15:21:49.434Z,101359.50
2019-03-28T15:24:20.912Z,101358.48
2019-03-28T15:26:53.012Z,101352.22
2019-03-28T15:29:24.387Z,101351.55
2019-03-28T15:31:56.251Z,101350.62
2019-03-28T15:34:27.874Z,101352.70
2019-03-28T15:36:59.197Z,101349.01
2019-03-28T15:39:31.623Z,101348.16
2019-03-28T15:42:03.218Z,101346.11
2019-03-28T15:44:34.793Z,101352.30
2019-03-28T15:47:06.346Z,101345.71
2019-03-28T15:49:37.900Z,101343.63
2019-03-28T15:52:09.198Z,101345.56
2019-03-28T15:54:41.574Z,101348.23
2019-03-28T15:57:13.230Z,101345.53
2019-03-28T15:59:45.378Z,101343.56
2019-03-28T16:02:17.009Z,101347.22
2019-03-28T16:04:48.334Z,101351.71
2019-03-28T16:07:20.130Z,101353.27
2019-03-28T16:09:52.004Z,101347.75
2019-03-28T16:12:23.624Z,101348.05
2019-03-28T16:14:55.842Z,101351.95
2019-03-28T16:17:27.324Z,101340.06
2019-03-28T16:19:58.958Z,101347.86
2019-03-28T16:22:30.597Z,101346.41
2019-03-28T16:25:02.174Z,101354.14
2019-03-28T16:27:33.552Z,101356.20
2019-03-28T16:30:05.673Z,101353.83
2019-03-28T16:32:37.522Z,101352.17
2019-03-28T16:35:09.259Z,101352.45
2019-03-28T16:37:40.584Z,101349.17
2019-03-28T16:40:12.156Z,101351.39
2019-03-28T16:42:43.472Z,101341.59
2019-03-28T16:45:15.092Z,101347.84
2019-03-28T16:47:46.612Z,101348.38
2019-03-28T16:50:18.235Z,101351.83
2019-03-28T16:52:49.784Z,101346.53
2019-03-28T16:55:26.633Z,101351.38
2019-03-28T16:57:54.662Z,101352.19
2019-03-28T17:00:35.402Z,101344.86
2019-03-28T17:03:07.428Z,101351.03
2019-03-28T17:05:38.894Z,101360.23
2019-03-28T17:08:10.573Z,101349.12
2019-03-28T17:10:55.067Z,101352.39
2019-03-28T17:13:26.747Z,101360.94
2019-03-28T17:15:58.160Z,101354.55
2019-03-28T17:18:30.559Z,101354.91
2019-03-28T17:21:02.911Z,101351.33
2019-03-28T17:23:35.544Z,101355.17
2019-03-28T17:26:06.982Z,101366.05
2019-03-28T17:28:38.904Z,101361.11
2019-03-28T17:31:10.507Z,101370.17
2019-03-28T17:33:41.832Z,101370.17
2019-03-28T17:36:13.379Z,101366.63
2019-03-28T17:38:44.972Z,101366.63
2019-03-28T17:41:16.610Z,101367.03
2019-03-28T17:43:48.016Z,101366.48
2019-03-28T17:46:19.801Z,101362.30
2019-03-28T17:48:51.124Z,101372.94
2019-03-28T17:51:22.765Z,101373.73
2019-03-28T17:53:56.119Z,101383.61
2019-03-28T17:56:27.748Z,101381.38
2019-03-28T17:58:59.298Z,101383.94
2019-03-28T18:01:30.730Z,101387.44
2019-03-28T18:04:02.047Z,101380.15
2019-03-28T18:06:35.255Z,101386.56
2019-03-28T18:09:08.283Z,101388.52
2019-03-28T18:11:39.616Z,101385.27
2019-03-28T18:14:10.929Z,101389.53
2019-03-28T18:16:42.344Z,101387.32
2019-03-28T18:19:13.683Z,101387.45
2019-03-28T18:21:45.396Z,101391.69
2019-03-28T18:24:16.733Z,101389.34
2019-03-28T18:26:49.027Z,101397.48
2019-03-28T18:29:21.159Z,101406.19
2019-03-28T18:31:52.898Z,101403.13
2019-03-28T18:34:24.479Z,101403.94
2019-03-28T18:36:55.878Z,101405.17
2019-03-28T18:39:28.849Z,101409.81
2019-03-28T18:42:00.454Z,101404.66
2019-03-28T18:44:31.773Z,101411.02
2019-03-28T18:47:03.188Z,101414.30
2019-03-28T18:49:34.815Z,101415.55
2019-03-28T18:52:07.491Z,101417.53
2019-03-28T18:54:39.045Z,101421.27
2019-03-28T18:57:10.466Z,101419.72
2019-03-28T18:59:42.376Z,101415.20
2019-03-28T19:02:14.134Z,101419.60
2019-03-28T19:04:45.861Z,101420.52
2019-03-28T19:07:17.570Z,101416.70
2019-03-28T19:09:49.676Z,101412.70
2019-03-28T19:12:21.115Z,101415.81
2019-03-28T19:14:53.284Z,101416.56
2019-03-28T19:17:24.676Z,101421.72
2019-03-28T19:19:59.346Z,101426.59
2019-03-28T19:22:29.306Z,101427.80
2019-03-28T19:25:00.938Z,101430.90
2019-03-28T19:27:34.287Z,101425.85
2019-03-28T19:30:06.097Z,101429.89
2019-03-28T19:32:38.083Z,101422.91
2019-03-28T19:35:09.639Z,101426.33
2019-03-28T19:37:42.005Z,101425.73
2019-03-28T19:40:13.828Z,101428.62
2019-03-28T19:42:45.471Z,101431.55
2019-03-28T19:45:26.754Z,101433.68
2019-03-28T19:47:58.167Z,101433.71
2019-03-28T19:50:29.871Z,101432.94
2019-03-28T19:53:01.495Z,101427.98
2019-03-28T19:55:33.115Z,101427.34
2019-03-28T19:58:05.001Z,101420.37
2019-03-28T20:00:36.788Z,101419.13
2019-03-28T20:03:08.644Z,101422.18
2019-03-28T20:05:47.487Z,101427.72
2019-03-28T20:08:15.894Z,101414.22
2019-03-28T20:10:46.211Z,101415.25
2019-03-28T20:13:17.602Z,101419.05
2019-03-28T20:15:49.135Z,101413.19
2019-03-28T20:18:21.019Z,101415.30
2019-03-28T20:20:55.575Z,101411.72
2019-03-28T20:23:25.653Z,101407.78
2019-03-28T20:25:58.858Z,101409.78
2019-03-28T20:28:30.401Z,101412.23
2019-03-28T20:31:01.821Z,101410.48
2019-03-28T20:33:33.210Z,101398.84
2019-03-28T20:36:30.200Z,101405.20
2019-03-28T20:38:38.405Z,101410.39
2019-03-28T20:41:09.835Z,101413.07
2019-03-28T20:43:41.175Z,101408.09
2019-03-28T20:46:12.545Z,101406.89
2019-03-28T20:48:44.932Z,101417.41
2019-03-28T20:51:16.547Z,101412.92
2019-03-28T20:53:48.583Z,101413.05
2019-03-28T20:56:20.446Z,101417.69
2019-03-28T20:58:51.785Z,101425.55
2019-03-28T21:01:23.241Z,101421.16
2019-03-28T21:03:54.619Z,101426.46
2019-03-28T21:06:26.164Z,101424.39
2019-03-28T21:08:57.537Z,101423.66
2019-03-28T21:11:29.586Z,101420.05
2019-03-28T21:14:03.069Z,101418.58
2019-03-28T21:16:34.689Z,101422.25
2019-03-28T21:19:06.047Z,101422.03
2019-03-28T21:21:37.430Z,101414.38
2019-03-28T21:24:09.042Z,101412.76
2019-03-28T21:26:41.077Z,101408.14
2019-03-28T21:29:12.669Z,101407.63
2019-03-28T21:31:49.785Z,101404.41
2019-03-28T21:34:17.497Z,101400.42
2019-03-28T21:36:50.509Z,101398.84
2019-03-28T21:39:21.966Z,101400.31
2019-03-28T21:41:54.034Z,101399.98
2019-03-28T21:44:25.586Z,101397.21
2019-03-28T21:46:57.120Z,101397.50
2019-03-28T21:49:28.758Z,101393.92
2019-03-28T21:52:00.154Z,101391.27
2019-03-28T21:54:31.683Z,101396.92
2019-03-28T21:57:03.084Z,101399.13
2019-03-28T21:59:34.382Z,101394.96
2019-03-28T22:02:06.010Z,101396.25
2019-03-28T22:04:37.532Z,101382.63
2019-03-28T22:07:09.161Z,101382.88
2019-03-28T22:09:40.766Z,101387.58
2019-03-28T22:12:12.103Z,101389.39
2019-03-28T22:14:43.436Z,101382.08
2019-03-28T22:17:15.196Z,101386.73
2019-03-28T22:19:47.153Z,101381.55
2019-03-28T22:22:18.480Z,101389.83
2019-03-28T22:24:50.397Z,101385.25
2019-03-28T22:27:22.217Z,101387.57
2019-03-28T22:29:53.880Z,101389.83
2019-03-28T22:32:25.505Z,101385.47
2019-03-28T22:34:57.126Z,101390.26
2019-03-28T22:37:28.892Z,101369.91
2019-03-28T22:40:00.525Z,101381.16
2019-03-28T22:42:31.878Z,101380.86
2019-03-28T22:45:03.717Z,101378.96
2019-03-28T22:47:35.875Z,101376.17
2019-03-28T22:50:08.867Z,101375.49
2019-03-28T22:52:40.184Z,101374.52
2019-03-28T22:55:12.090Z,101372.27
2019-03-28T22:57:43.719Z,101370.78
2019-03-28T23:00:15.508Z,101379.58
2019-03-28T23:02:48.428Z,101369.72
2019-03-28T23:05:20.122Z,101379.87
2019-03-28T23:07:51.547Z,101374.34
2019-03-28T23:10:23.157Z,101376.59
2019-03-28T23:12:54.752Z,101371.48
2019-03-28T23:15:26.424Z,101374.66
2019-03-28T23:17:57.834Z,101370.64
2019-03-28T23:20:29.133Z,101387.09
2019-03-28T23:23:00.466Z,101378.25
2019-03-28T23:25:31.840Z,101378.63
2019-03-28T23:28:03.246Z,101379.24
2019-03-28T23:30:34.947Z,101378.91
2019-03-28T23:33:06.392Z,101383.77
2019-03-28T23:35:37.931Z,101385.39
2019-03-28T23:38:09.295Z,101378.59
2019-03-28T23:40:40.674Z,101386.78
2019-03-28T23:43:12.087Z,101380.33
2019-03-28T23:45:43.724Z,101383.63
2019-03-28T23:48:15.593Z,101380.02
2019-03-28T23:50:46.895Z,101388.28
2019-03-28T23:53:18.287Z,101394.63
2019-03-28T23:55:49.659Z,101395.69
2019-03-28T23:58:21.273Z,101392.26
